Time;durP1;ratioP1;P1;durP2;ratioP2;P2;SDS_P1;SDS_P2;PMS_P1;PMS_P2;Temp;Humidity;BMP_temperature;BMP_pressure;BME280_temperature;BME280_humidity;BME280_pressure;Samples;Min_cycle;Max_cycle;Signal;HPM_P1;HPM_P2
2022/08/07 00:01:11;;;;;;;;;;;;;;;14.25;100.00;100230.91;5055106;28;19925;-83
2022/08/07 00:03:40;;;;;;;;;;;;;;;14.32;100.00;100236.44;5070997;28;20334;-83
2022/08/07 00:06:08;;;;;;;;;;;;;;;14.31;100.00;100240.47;5060587;28;19950;-81
2022/08/07 00:08:36;;;;;;;;;;;;;;;14.21;100.00;100241.34;5076432;28;19924;-81
2022/08/07 00:11:04;;;;;;;;;;;;;;;14.22;100.00;100234.53;5054646;28;20015;-82
2022/08/07 00:13:33;;;;;;;;;;;;;;;14.38;100.00;100234.75;5099321;28;19925;-82
2022/08/07 00:16:40;;;;;;;;;;;;;;;14.45;100.00;100229.81;5046609;28;19931;-82
2022/08/07 00:19:08;;;;;;;;;;;;;;;14.36;100.00;100221.09;5039231;28;19925;-81
2022/08/07 00:21:35;;;;;;;;;;;;;;;14.37;100.00;100228.31;5056171;28;19932;-81
2022/08/07 00:24:02;;;;;;;;;;;;;;;14.16;100.00;100227.78;5089371;28;19924;-81
2022/08/07 00:26:29;;;;;;;;;;;;;;;14.07;100.00;100224.69;5083720;28;19925;-81
2022/08/07 00:28:56;;;;;;;;;;;;;;;13.75;100.00;100225.00;5056471;28;20011;-81
2022/08/07 00:31:24;;;;;;;;;;;;;;;14.04;100.00;100225.50;5039961;28;19932;-81
2022/08/07 00:33:52;;;;;;;;;;;;;;;14.05;100.00;100224.28;5076082;28;20007;-81
2022/08/07 00:36:19;;;;;;;;;;;;;;;14.08;100.00;100226.25;5048571;28;20380;-81
2022/08/07 00:38:46;;;;;;;;;;;;;;;13.96;100.00;100221.19;5055795;28;20039;-81
2022/08/07 00:41:13;;;;;;;;;;;;;;;14.02;100.00;100225.94;5072514;28;19924;-81
2022/08/07 00:43:40;;;;;;;;;;;;;;;13.91;100.00;100235.69;5066484;28;20608;-82
2022/08/07 00:46:07;;;;;;;;;;;;;;;14.04;100.00;100228.31;5096645;28;20282;-82
2022/08/07 00:48:34;;;;;;;;;;;;;;;14.24;100.00;100229.28;5096505;28;19951;-81
2022/08/07 00:51:01;;;;;;;;;;;;;;;14.30;100.00;100224.81;5063214;28;19947;-82
2022/08/07 00:53:28;;;;;;;;;;;;;;;14.25;100.00;100225.28;5079068;28;19930;-81
2022/08/07 00:55:56;;;;;;;;;;;;;;;13.60;100.00;100217.16;5079099;28;19924;-81
2022/08/07 00:58:23;;;;;;;;;;;;;;;13.65;100.00;100219.50;5076064;28;19931;-81
2022/08/07 01:00:50;;;;;;;;;;;;;;;13.42;100.00;100230.56;5059466;28;19951;-81
2022/08/07 01:03:18;;;;;;;;;;;;;;;13.90;100.00;100225.66;5075331;28;20383;-81
2022/08/07 01:05:45;;;;;;;;;;;;;;;14.09;100.00;100222.22;5059007;28;20391;-81
2022/08/07 01:08:13;;;;;;;;;;;;;;;14.13;100.00;100223.00;5082525;28;19985;-81
2022/08/07 01:10:41;;;;;;;;;;;;;;;13.73;100.00;100215.41;5040239;28;20423;-81
2022/08/07 01:13:21;;;;;;;;;;;;;;;13.70;100.00;100213.44;5039178;28;19925;-81
2022/08/07 01:16:41;;;;;;;;;;;;;;;13.60;100.00;100217.94;5044642;28;19930;-81
2022/08/07 01:19:33;;;;;;;;;;;;;;;13.74;100.00;100217.00;5066931;28;19928;-82
2022/08/07 01:22:01;;;;;;;;;;;;;;;13.72;100.00;100216.63;5062078;28;20031;-81
2022/08/07 01:24:33;;;;;;;;;;;;;;;13.42;100.00;100213.72;5062721;28;19923;-81
2022/08/07 01:27:00;;;;;;;;;;;;;;;13.64;100.00;100206.69;5078820;28;19930;-81
2022/08/07 01:29:29;;;;;;;;;;;;;;;13.79;100.00;100208.13;5083165;28;20375;-81
2022/08/07 01:31:57;;;;;;;;;;;;;;;13.87;100.00;100204.81;5089861;28;20443;-81
2022/08/07 01:34:25;;;;;;;;;;;;;;;13.92;100.00;100207.16;5075351;28;19925;-81
2022/08/07 01:36:52;;;;;;;;;;;;;;;13.86;100.00;100203.22;5072594;28;19924;-81
2022/08/07 01:39:23;;;;;;;;;;;;;;;13.83;100.00;100203.25;5091526;28;20375;-82
2022/08/07 01:42:00;;;;;;;;;;;;;;;13.84;100.00;100207.66;5072343;28;19928;-81
2022/08/07 01:44:30;;;;;;;;;;;;;;;13.80;100.00;100192.84;5108514;28;20272;-82
2022/08/07 01:46:57;;;;;;;;;;;;;;;13.85;100.00;100198.81;5058913;28;20378;-82
2022/08/07 01:49:27;;;;;;;;;;;;;;;13.80;100.00;100193.66;5091597;28;20070;-82
2022/08/07 01:51:55;;;;;;;;;;;;;;;13.69;100.00;100183.75;5062353;28;20008;-82
2022/08/07 01:54:25;;;;;;;;;;;;;;;13.63;100.00;100177.78;5054418;28;19925;-81
2022/08/07 01:57:00;;;;;;;;;;;;;;;13.69;100.00;100173.31;5088639;28;19964;-81
2022/08/07 01:59:47;;;;;;;;;;;;;;;13.61;100.00;100179.44;5088307;28;19925;-81
2022/08/07 02:02:20;;;;;;;;;;;;;;;12.78;100.00;100179.75;5071898;28;19971;-81
2022/08/07 02:05:01;;;;;;;;;;;;;;;12.94;100.00;100182.00;5071198;28;19982;-82
2022/08/07 02:07:47;;;;;;;;;;;;;;;13.15;100.00;100181.88;5070630;28;20007;-81
2022/08/07 02:10:17;;;;;;;;;;;;;;;13.43;100.00;100178.81;5061531;28;19971;-81
2022/08/07 02:12:45;;;;;;;;;;;;;;;13.68;100.00;100173.72;5077613;28;19924;-81
2022/08/07 02:15:21;;;;;;;;;;;;;;;13.65;100.00;100164.13;5077616;28;19956;-81
2022/08/07 02:17:50;;;;;;;;;;;;;;;13.31;100.00;100166.09;5096153;28;19931;-81
2022/08/07 02:20:20;;;;;;;;;;;;;;;13.16;100.00;100164.63;5077424;28;19924;-81
2022/08/07 02:22:48;;;;;;;;;;;;;;;13.18;100.00;100155.78;5094886;28;19924;-81
2022/08/07 02:25:17;;;;;;;;;;;;;;;12.27;100.00;100166.44;5077410;28;20061;-81
2022/08/07 02:27:54;;;;;;;;;;;;;;;12.22;100.00;100158.44;5094408;28;19931;-81
2022/08/07 02:30:23;;;;;;;;;;;;;;;12.87;100.00;100157.66;5094714;28;19924;-81
2022/08/07 02:32:51;;;;;;;;;;;;;;;13.21;100.00;100152.16;5077251;28;19931;-81
2022/08/07 02:35:19;;;;;;;;;;;;;;;13.26;100.00;100146.91;5076978;28;19924;-81
2022/08/07 02:37:48;;;;;;;;;;;;;;;13.31;100.00;100143.66;5077797;28;19983;-81
2022/08/07 02:43:35;;;;;;;;;;;;;;;13.27;100.00;100136.47;5070456;28;19924;-81
2022/08/07 02:46:04;;;;;;;;;;;;;;;13.15;100.00;100139.78;5037494;28;19931;-81
2022/08/07 02:48:34;;;;;;;;;;;;;;;12.88;100.00;100135.97;5042949;28;19924;-81
2022/08/07 02:51:06;;;;;;;;;;;;;;;13.09;100.00;100136.63;5060861;28;19924;-81
2022/08/07 02:53:36;;;;;;;;;;;;;;;12.58;100.00;100140.22;5057594;28;20001;-82
2022/08/07 02:56:07;;;;;;;;;;;;;;;12.36;100.00;100132.34;5074479;28;19932;-82
2022/08/07 02:58:38;;;;;;;;;;;;;;;12.01;100.00;100138.94;5062576;28;19924;-81
2022/08/07 03:01:06;;;;;;;;;;;;;;;12.26;100.00;100134.03;5090039;28;20030;-81
2022/08/07 03:03:35;;;;;;;;;;;;;;;12.38;100.00;100122.34;5085767;28;19925;-82
2022/08/07 03:06:04;;;;;;;;;;;;;;;12.89;100.00;100127.16;5069911;28;20426;-81
2022/08/07 03:08:32;;;;;;;;;;;;;;;13.23;100.00;100128.09;5070090;28;20299;-81
2022/08/07 03:11:01;;;;;;;;;;;;;;;13.37;100.00;100119.53;5071138;28;20373;-81
2022/08/07 03:13:34;;;;;;;;;;;;;;;13.49;100.00;100116.19;5077556;28;19924;-81
2022/08/07 03:16:01;;;;;;;;;;;;;;;13.58;100.00;100107.25;5050922;28;19925;-82
2022/08/07 03:18:30;;;;;;;;;;;;;;;13.33;100.00;100117.97;5074248;28;19925;-81
2022/08/07 03:20:57;;;;;;;;;;;;;;;13.44;100.00;100107.41;5059943;28;20009;-81
2022/08/07 03:23:26;;;;;;;;;;;;;;;13.59;100.00;100104.03;5093275;28;19925;-81
2022/08/07 03:25:56;;;;;;;;;;;;;;;13.48;100.00;100108.19;5077224;28;19931;-81
2022/08/07 03:28:25;;;;;;;;;;;;;;;12.72;100.00;100116.91;5093553;28;19931;-81
2022/08/07 03:31:17;;;;;;;;;;;;;;;13.15;100.00;100117.31;5059941;28;19928;-82
2022/08/07 03:33:39;;;;;;;;;;;;;;;12.94;100.00;100123.09;5072898;28;19924;-82
2022/08/07 03:36:09;;;;;;;;;;;;;;;13.22;100.00;100117.28;5073591;28;19932;-81
2022/08/07 03:38:38;;;;;;;;;;;;;;;13.05;100.00;100123.84;5106841;28;19924;-81
2022/08/07 03:41:06;;;;;;;;;;;;;;;12.86;100.00;100118.78;5081812;28;19924;-81
2022/08/07 03:43:35;;;;;;;;;;;;;;;13.08;100.00;100117.41;5076367;28;20082;-81
2022/08/07 03:46:02;;;;;;;;;;;;;;;13.24;100.00;100114.84;5091660;28;20291;-81
2022/08/07 03:48:31;;;;;;;;;;;;;;;13.48;100.00;100122.22;5065005;28;20420;-81
2022/08/07 03:50:59;;;;;;;;;;;;;;;13.53;100.00;100118.94;5069660;28;20288;-81
2022/08/07 03:53:33;;;;;;;;;;;;;;;13.67;100.00;100124.41;5059820;28;20017;-82
2022/08/07 03:56:00;;;;;;;;;;;;;;;13.64;100.00;100133.66;5077033;28;19931;-81
2022/08/07 03:58:29;;;;;;;;;;;;;;;13.29;100.00;100120.00;5059873;28;20028;-81
2022/08/07 04:00:57;;;;;;;;;;;;;;;12.85;100.00;100119.97;5076082;28;19931;-81
2022/08/07 04:03:25;;;;;;;;;;;;;;;13.02;100.00;100124.69;5076149;28;19924;-81
2022/08/07 04:05:53;;;;;;;;;;;;;;;13.50;100.00;100128.19;5093147;28;19924;-81
2022/08/07 04:08:22;;;;;;;;;;;;;;;13.60;100.00;100121.69;5060201;28;19924;-81
2022/08/07 04:10:50;;;;;;;;;;;;;;;13.88;100.00;100121.31;5083904;28;19932;-81
2022/08/07 04:13:20;;;;;;;;;;;;;;;13.81;100.00;100110.19;5053372;28;19925;-81
2022/08/07 04:15:48;;;;;;;;;;;;;;;13.89;100.00;100111.66;5035750;28;20387;-81
2022/08/07 04:18:17;;;;;;;;;;;;;;;13.67;100.00;100104.72;5044663;28;20005;-81
2022/08/07 04:20:46;;;;;;;;;;;;;;;13.80;100.00;100102.97;5052225;28;19925;-81
2022/08/07 04:23:14;;;;;;;;;;;;;;;13.84;100.00;100103.72;5036859;28;19925;-81
2022/08/07 04:25:41;;;;;;;;;;;;;;;13.89;100.00;100100.44;5094158;28;19935;-81
2022/08/07 04:28:11;;;;;;;;;;;;;;;13.35;100.00;100101.47;5076507;28;20371;-81
2022/08/07 04:30:39;;;;;;;;;;;;;;;13.06;100.00;100103.78;5059600;28;19924;-81
2022/08/07 04:33:13;;;;;;;;;;;;;;;12.98;100.00;100102.22;5076921;28;20005;-81
2022/08/07 04:35:47;;;;;;;;;;;;;;;13.22;100.00;100100.44;5043842;28;20300;-81
2022/08/07 04:38:16;;;;;;;;;;;;;;;13.37;100.00;100101.88;5075863;28;20384;-81
2022/08/07 04:40:46;;;;;;;;;;;;;;;13.48;100.00;100100.53;5050310;28;19932;-81
2022/08/07 04:43:16;;;;;;;;;;;;;;;13.30;100.00;100099.16;5052851;28;19974;-81
2022/08/07 04:45:45;;;;;;;;;;;;;;;13.28;100.00;100098.78;5066673;28;19924;-81
2022/08/07 04:48:27;;;;;;;;;;;;;;;13.15;100.00;100101.28;5038249;28;19924;-81
2022/08/07 04:51:11;;;;;;;;;;;;;;;13.36;100.00;100101.06;5085621;28;19924;-81
2022/08/07 04:53:42;;;;;;;;;;;;;;;13.28;100.00;100105.19;5070218;28;19925;-81
2022/08/07 04:56:10;;;;;;;;;;;;;;;13.29;100.00;100097.53;5036441;28;19958;-81
2022/08/07 04:59:00;;;;;;;;;;;;;;;13.09;100.00;100099.34;5023578;28;19924;-81
2022/08/07 05:02:03;;;;;;;;;;;;;;;13.17;100.00;100089.66;5024833;28;19932;-81
2022/08/07 05:04:35;;;;;;;;;;;;;;;13.30;100.00;100090.75;5056086;28;19925;-81
2022/08/07 05:07:08;;;;;;;;;;;;;;;13.28;100.00;100087.53;5072818;28;19932;-81
2022/08/07 05:09:49;;;;;;;;;;;;;;;13.13;100.00;100091.72;5080791;28;19964;-81
2022/08/07 05:12:22;;;;;;;;;;;;;;;13.04;100.00;100094.19;5092203;28;19932;-81
2022/08/07 05:14:51;;;;;;;;;;;;;;;13.02;100.00;100091.00;5092830;28;20343;-81
2022/08/07 05:17:26;;;;;;;;;;;;;;;12.28;100.00;100086.75;5091475;28;19925;-81
2022/08/07 05:19:54;;;;;;;;;;;;;;;12.95;100.00;100091.84;5071584;28;20330;-81
2022/08/07 05:22:22;;;;;;;;;;;;;;;13.16;100.00;100085.25;5055764;28;19928;-81
2022/08/07 05:24:54;;;;;;;;;;;;;;;13.58;100.00;100085.59;5101032;28;19925;-81
2022/08/07 05:27:22;;;;;;;;;;;;;;;14.11;100.00;100088.50;5075451;28;19950;-81
2022/08/07 05:29:51;;;;;;;;;;;;;;;14.51;100.00;100085.94;5075460;28;19947;-81
2022/08/07 05:32:19;;;;;;;;;;;;;;;14.85;100.00;100083.75;5071274;28;20016;-81
2022/08/07 05:34:48;;;;;;;;;;;;;;;15.21;100.00;100079.88;5088923;28;19925;-82
2022/08/07 05:37:17;;;;;;;;;;;;;;;15.39;100.00;100073.94;5091987;28;19928;-83
2022/08/07 05:39:53;;;;;;;;;;;;;;;15.63;100.00;100064.22;5078614;28;19924;-83
2022/08/07 05:42:21;;;;;;;;;;;;;;;15.69;100.00;100068.13;5044073;28;19924;-82
2022/08/07 05:44:48;;;;;;;;;;;;;;;15.69;100.00;100063.25;5038305;28;20057;-83
2022/08/07 05:47:18;;;;;;;;;;;;;;;15.89;100.00;100064.03;5041101;28;19924;-85
2022/08/07 05:49:48;;;;;;;;;;;;;;;16.13;100.00;100062.69;5085380;28;20023;-84
2022/08/07 05:52:17;;;;;;;;;;;;;;;16.08;100.00;100073.72;5059224;28;19925;-84
2022/08/07 05:54:47;;;;;;;;;;;;;;;16.43;100.00;100069.28;5095004;28;19924;-84
2022/08/07 05:57:15;;;;;;;;;;;;;;;16.47;100.00;100070.00;5093303;28;19932;-84
2022/08/07 05:59:47;;;;;;;;;;;;;;;16.74;100.00;100079.81;5038370;28;20384;-84
2022/08/07 06:02:17;;;;;;;;;;;;;;;16.81;100.00;100073.19;5087958;28;19931;-84
2022/08/07 06:04:57;;;;;;;;;;;;;;;16.88;100.00;100087.13;5087961;28;19979;-85
2022/08/07 06:07:26;;;;;;;;;;;;;;;16.64;100.00;100091.38;5061904;28;19924;-83
2022/08/07 06:09:55;;;;;;;;;;;;;;;16.87;100.00;100088.38;5070257;28;20011;-83
2022/08/07 06:12:25;;;;;;;;;;;;;;;17.21;100.00;100091.50;5100120;28;19925;-81
2022/08/07 06:14:57;;;;;;;;;;;;;;;17.40;100.00;100079.28;5085310;28;19931;-83
2022/08/07 06:17:30;;;;;;;;;;;;;;;17.48;100.00;100077.88;5061993;28;19924;-81
2022/08/07 06:20:01;;;;;;;;;;;;;;;17.59;100.00;100079.19;5078075;28;19928;-85
2022/08/07 06:22:32;;;;;;;;;;;;;;;17.87;100.00;100077.56;5081429;28;20371;-87
2022/08/07 06:25:33;;;;;;;;;;;;;;;17.75;100.00;100078.34;5078802;28;19924;-82
2022/08/07 06:28:11;;;;;;;;;;;;;;;17.79;100.00;100079.81;5034184;28;19958;-87
2022/08/07 06:30:39;;;;;;;;;;;;;;;17.87;100.00;100071.91;5004069;28;19932;-82
2022/08/07 06:33:40;;;;;;;;;;;;;;;17.51;100.00;100065.69;5005408;28;19925;-82
2022/08/07 06:36:11;;;;;;;;;;;;;;;17.70;100.00;100073.22;4998964;28;19930;-83
2022/08/07 06:39:08;;;;;;;;;;;;;;;17.66;100.00;100061.22;5006027;28;19929;-83
2022/08/07 06:41:40;;;;;;;;;;;;;;;17.71;100.00;100066.31;5033941;28;19932;-85
2022/08/07 06:44:24;;;;;;;;;;;;;;;17.53;100.00;100064.00;5001706;28;20412;-85
2022/08/07 06:46:59;;;;;;;;;;;;;;;17.87;100.00;100060.59;5018021;28;19925;-87
2022/08/07 06:49:28;;;;;;;;;;;;;;;17.55;100.00;100061.50;5033568;28;20430;-87
2022/08/07 06:52:02;;;;;;;;;;;;;;;17.50;100.00;100064.09;5038242;28;19968;-88
2022/08/07 06:54:31;;;;;;;;;;;;;;;17.62;100.00;100063.34;5062942;28;19972;-87
2022/08/07 06:57:16;;;;;;;;;;;;;;;17.93;100.00;100067.28;5041428;28;20054;-87
2022/08/07 07:00:07;;;;;;;;;;;;;;;17.80;100.00;100060.81;5061115;28;19984;-85
2022/08/07 07:02:45;;;;;;;;;;;;;;;17.89;100.00;100058.09;5083802;28;19963;-88
2022/08/07 07:05:19;;;;;;;;;;;;;;;18.40;100.00;100065.44;5045317;28;20344;-86
2022/08/07 07:07:47;;;;;;;;;;;;;;;18.32;100.00;100072.53;5092664;28;20082;-84
2022/08/07 07:10:16;;;;;;;;;;;;;;;18.05;100.00;100063.69;5043417;28;19931;-82
2022/08/07 07:12:51;;;;;;;;;;;;;;;17.88;100.00;100076.31;5077117;28;19928;-83
2022/08/07 07:15:23;;;;;;;;;;;;;;;18.06;100.00;100085.06;5093318;28;19924;-85
2022/08/07 07:20:54;;;;;;;;;;;;;;;18.61;100.00;100090.25;5087269;28;19930;-85
2022/08/07 07:23:22;;;;;;;;;;;;;;;19.11;100.00;100093.00;5050599;28;20380;-85
2022/08/07 07:25:51;;;;;;;;;;;;;;;19.56;100.00;100095.47;5069520;28;20022;-83
2022/08/07 07:28:21;;;;;;;;;;;;;;;20.40;100.00;100097.94;5052942;28;19925;-84
2022/08/07 07:31:11;;;;;;;;;;;;;;;20.74;100.00;100083.59;5053766;28;20368;-84
2022/08/07 07:33:40;;;;;;;;;;;;;;;21.95;100.00;100086.44;5033532;28;20027;-85
2022/08/07 07:36:09;;;;;;;;;;;;;;;22.14;100.00;100093.69;5075495;28;19931;-85
2022/08/07 07:38:37;;;;;;;;;;;;;;;20.85;100.00;100098.16;5069387;28;19932;-87
2022/08/07 07:41:06;;;;;;;;;;;;;;;21.40;100.00;100091.34;5052761;28;19925;-87
2022/08/07 07:43:35;;;;;;;;;;;;;;;21.98;100.00;100085.50;5052965;28;19928;-83
2022/08/07 07:46:03;;;;;;;;;;;;;;;22.24;100.00;100092.41;5036110;28;19932;-85
2022/08/07 07:48:30;;;;;;;;;;;;;;;21.85;100.00;100086.94;5069193;28;19932;-86
2022/08/07 07:50:58;;;;;;;;;;;;;;;23.02;100.00;100095.13;5057876;28;19925;-83
2022/08/07 07:53:26;;;;;;;;;;;;;;;23.74;100.00;100094.63;5072590;28;20387;-83
2022/08/07 07:55:57;;;;;;;;;;;;;;;24.80;100.00;100095.25;5072866;28;19934;-83
2022/08/07 07:58:27;;;;;;;;;;;;;;;25.07;100.00;100086.31;5073097;28;19924;-83
2022/08/07 08:00:54;;;;;;;;;;;;;;;22.20;100.00;100091.78;5072729;28;20264;-82
2022/08/07 08:03:22;;;;;;;;;;;;;;;21.94;100.00;100095.47;5089788;28;20360;-82
2022/08/07 08:05:50;;;;;;;;;;;;;;;22.09;100.00;100105.72;5055917;28;19924;-82
2022/08/07 08:08:17;;;;;;;;;;;;;;;22.33;100.00;100100.91;5106068;28;20372;-82
2022/08/07 08:10:46;;;;;;;;;;;;;;;23.05;100.00;100094.91;5056507;28;19924;-82
2022/08/07 08:13:14;;;;;;;;;;;;;;;23.01;100.00;100094.31;5073998;28;19928;-83
2022/08/07 08:15:42;;;;;;;;;;;;;;;22.56;100.00;100086.00;5074126;28;19924;-83
2022/08/07 08:18:10;;;;;;;;;;;;;;;22.13;100.00;100089.25;5072760;28;19947;-83
2022/08/07 08:20:38;;;;;;;;;;;;;;;22.59;100.00;100079.34;5072730;28;19925;-83
2022/08/07 08:28:43;;;;;;;;;;;;;;;21.50;100.00;100072.25;5055532;28;19924;-85
2022/08/07 08:31:13;;;;;;;;;;;;;;;21.29;100.00;100064.66;5072771;28;20288;-86
2022/08/07 08:33:41;;;;;;;;;;;;;;;20.77;100.00;100070.50;5076219;28;19924;-87
2022/08/07 08:36:09;;;;;;;;;;;;;;;21.22;100.00;100079.94;5068566;28;19925;-90
2022/08/07 08:38:38;;;;;;;;;;;;;;;21.19;100.00;100083.72;5063414;28;19924;-84
2022/08/07 08:41:16;;;;;;;;;;;;;;;21.06;100.00;100087.97;5055790;28;19925;-86
2022/08/07 08:43:53;;;;;;;;;;;;;;;20.62;100.00;100080.88;5056085;28;19928;-88
2022/08/07 08:46:22;;;;;;;;;;;;;;;20.90;100.00;100088.22;5056233;28;19925;-87
2022/08/07 08:48:58;;;;;;;;;;;;;;;21.67;100.00;100087.72;5072622;28;20265;-84
2022/08/07 08:51:28;;;;;;;;;;;;;;;22.17;100.00;100075.66;5056993;28;19978;-82
2022/08/07 08:53:59;;;;;;;;;;;;;;;23.02;100.00;100070.25;5057230;28;19932;-83
2022/08/07 08:56:32;;;;;;;;;;;;;;;23.24;100.00;100067.13;5092150;28;19925;-83
2022/08/07 08:59:14;;;;;;;;;;;;;;;23.74;100.00;100062.44;5059140;28;19925;-87
2022/08/07 09:01:59;;;;;;;;;;;;;;;23.57;100.00;100061.34;5085546;28;19924;-84
2022/08/07 09:04:41;;;;;;;;;;;;;;;23.31;100.00;100065.97;5093389;28;19924;-82
2022/08/07 09:07:17;;;;;;;;;;;;;;;22.49;100.00;100062.75;5076782;28;19977;-85
2022/08/07 09:10:03;;;;;;;;;;;;;;;22.22;100.00;100065.69;5092306;28;20299;-85
2022/08/07 09:12:53;;;;;;;;;;;;;;;22.15;100.00;100072.50;5058891;28;20394;-85
2022/08/07 09:15:26;;;;;;;;;;;;;;;22.36;100.00;100071.50;5025709;28;20334;-85
2022/08/07 09:18:14;;;;;;;;;;;;;;;22.25;100.00;100070.44;5075131;28;19924;-85
2022/08/07 09:20:43;;;;;;;;;;;;;;;21.93;100.00;100071.91;5053540;28;19967;-84
2022/08/07 09:23:37;;;;;;;;;;;;;;;21.45;100.00;100081.38;5095627;28;19924;-84
2022/08/07 09:26:05;;;;;;;;;;;;;;;22.02;100.00;100071.91;5056809;28;19931;-85
2022/08/07 09:28:40;;;;;;;;;;;;;;;22.00;100.00;100071.59;5078887;28;20303;-86
2022/08/07 09:31:14;;;;;;;;;;;;;;;21.60;100.00;100076.66;5061981;28;19961;-85
2022/08/07 09:33:47;;;;;;;;;;;;;;;21.38;100.00;100081.72;5078626;28;19955;-87
2022/08/07 09:36:17;;;;;;;;;;;;;;;21.61;100.00;100072.56;5094942;28;19985;-87
2022/08/07 09:39:03;;;;;;;;;;;;;;;21.10;100.00;100078.03;5094700;28;19966;-88
2022/08/07 09:41:37;;;;;;;;;;;;;;;20.75;100.00;100075.88;5078056;28;19932;-89
2022/08/07 09:44:33;;;;;;;;;;;;;;;20.61;100.00;100084.97;5061508;28;19935;-88
2022/08/07 09:47:16;;;;;;;;;;;;;;;21.65;100.00;100067.50;5068981;28;19924;-87
2022/08/07 09:49:44;;;;;;;;;;;;;;;21.76;100.00;100058.50;5077926;28;19928;-88
2022/08/07 09:52:30;;;;;;;;;;;;;;;22.01;100.00;100064.63;5077744;28;20375;-88
2022/08/07 09:55:03;;;;;;;;;;;;;;;22.17;100.00;100052.91;5094735;28;19934;-89
2022/08/07 09:57:49;;;;;;;;;;;;;;;21.71;100.00;100042.84;5094952;28;19951;-88
2022/08/07 10:00:21;;;;;;;;;;;;;;;21.55;100.00;100050.91;5078274;28;19924;-88
2022/08/07 10:02:54;;;;;;;;;;;;;;;21.41;100.00;100038.13;5077787;28;20290;-81
2022/08/07 10:05:42;;;;;;;;;;;;;;;22.01;100.00;100049.63;5077876;28;19928;-82
2022/08/07 10:08:31;;;;;;;;;;;;;;;22.01;100.00;100047.53;5049458;28;19931;-82
2022/08/07 10:11:04;;;;;;;;;;;;;;;22.31;100.00;100046.50;5095050;28;20007;-82
2022/08/07 10:13:38;;;;;;;;;;;;;;;22.57;100.00;100050.53;5095881;28;19946;-85
2022/08/07 10:16:04;;;;;;;;;;;;;;;22.21;100.00;100053.50;5094509;28;20375;-84
2022/08/07 10:18:32;;;;;;;;;;;;;;;22.06;100.00;100054.66;5092695;28;19924;-84
2022/08/07 10:21:20;;;;;;;;;;;;;;;22.29;100.00;100059.66;5094494;28;19970;-84
2022/08/07 10:23:57;;;;;;;;;;;;;;;22.82;100.00;100047.25;5093441;28;19924;-84
2022/08/07 10:26:43;;;;;;;;;;;;;;;22.06;100.00;100046.91;5060199;28;19930;-85
2022/08/07 10:29:29;;;;;;;;;;;;;;;22.94;100.00;100049.09;5076810;28;19932;-84
2022/08/07 10:32:17;;;;;;;;;;;;;;;22.81;100.00;100051.38;5076426;28;19926;-84
2022/08/07 10:34:44;;;;;;;;;;;;;;;22.21;100.00;100025.03;5093352;28;19927;-84
2022/08/07 10:37:23;;;;;;;;;;;;;;;22.62;100.00;100044.19;5093091;28;19974;-85
2022/08/07 10:39:50;;;;;;;;;;;;;;;22.35;100.00;100050.00;5076440;28;20019;-84
2022/08/07 10:42:20;;;;;;;;;;;;;;;22.35;100.00;100040.66;5076163;28;19952;-85
2022/08/07 10:44:55;;;;;;;;;;;;;;;22.30;100.00;100047.78;5043103;28;19931;-84
2022/08/07 10:47:32;;;;;;;;;;;;;;;22.91;100.00;100052.13;5076395;28;20295;-85
2022/08/07 10:50:07;;;;;;;;;;;;;;;23.09;100.00;100049.94;5092897;28;19931;-85
2022/08/07 10:52:50;;;;;;;;;;;;;;;23.41;100.00;100036.09;5092957;28;19966;-85
2022/08/07 10:55:20;;;;;;;;;;;;;;;22.65;100.00;100026.16;5075386;28;19946;-85
2022/08/07 10:57:58;;;;;;;;;;;;;;;22.38;100.00;100034.78;5092686;28;19925;-85
2022/08/07 11:00:28;;;;;;;;;;;;;;;23.07;100.00;100018.28;5092660;28;19928;-85
2022/08/07 11:03:04;;;;;;;;;;;;;;;23.89;100.00;100021.22;5058846;28;19926;-85
2022/08/07 11:05:34;;;;;;;;;;;;;;;23.62;100.00;100021.50;5092054;28;20170;-85
2022/08/07 11:08:01;;;;;;;;;;;;;;;23.19;100.00;100012.81;5092725;28;19924;-85
2022/08/07 11:10:48;;;;;;;;;;;;;;;23.22;100.00;100012.59;5075830;28;20066;-85
2022/08/07 11:13:44;;;;;;;;;;;;;;;23.82;100.00;100015.13;5069296;28;19924;-85
2022/08/07 11:16:17;;;;;;;;;;;;;;;23.50;100.00;100021.75;5070464;28;19925;-86
2022/08/07 11:18:50;;;;;;;;;;;;;;;23.49;100.00;100003.88;5093046;28;20022;-85
2022/08/07 11:21:35;;;;;;;;;;;;;;;23.56;100.00;100002.69;5093041;28;19931;-84
2022/08/07 11:24:07;;;;;;;;;;;;;;;23.99;100.00;99997.03;5093172;28;19931;-88
2022/08/07 11:26:40;;;;;;;;;;;;;;;23.46;100.00;100004.06;5093337;28;19935;-84
2022/08/07 11:29:43;;;;;;;;;;;;;;;23.64;100.00;100001.03;5093417;28;20387;-85
2022/08/07 11:32:10;;;;;;;;;;;;;;;23.61;100.00;100007.72;5013816;28;19925;-84
2022/08/07 11:34:40;;;;;;;;;;;;;;;24.13;100.00;100001.16;5014433;28;19925;-87
2022/08/07 11:37:16;;;;;;;;;;;;;;;24.04;100.00;99998.41;4982384;28;20284;-86
2022/08/07 11:40:00;;;;;;;;;;;;;;;23.91;100.00;100006.47;4982137;28;20404;-86
2022/08/07 11:42:40;;;;;;;;;;;;;;;23.10;100.00;99999.41;4998305;28;19925;-87
2022/08/07 11:45:09;;;;;;;;;;;;;;;23.27;100.00;99996.91;5031297;28;19925;-86
2022/08/07 11:47:46;;;;;;;;;;;;;;;22.44;100.00;99998.69;5014274;28;19932;-84
2022/08/07 11:50:19;;;;;;;;;;;;;;;22.46;100.00;99996.13;5014390;28;19931;-85
2022/08/07 11:52:54;;;;;;;;;;;;;;;23.17;100.00;99990.50;5014379;28;19925;-86
2022/08/07 11:55:40;;;;;;;;;;;;;;;23.16;100.00;99997.44;5014981;28;19925;-88
2022/08/07 11:58:13;;;;;;;;;;;;;;;23.96;100.00;99985.81;5031559;28;19932;-88
2022/08/07 12:01:00;;;;;;;;;;;;;;;23.78;100.00;100001.03;5014740;28;19932;-88
2022/08/07 12:03:51;;;;;;;;;;;;;;;23.81;100.00;99996.44;4998815;28;20066;-87
2022/08/07 12:06:27;;;;;;;;;;;;;;;23.77;100.00;99996.63;5055917;28;20288;-89
2022/08/07 12:09:06;;;;;;;;;;;;;;;23.98;100.00;99989.75;5079839;28;19928;-85
2022/08/07 12:11:38;;;;;;;;;;;;;;;23.34;100.00;99979.44;5063211;28;19927;-86
2022/08/07 12:14:12;;;;;;;;;;;;;;;23.23;100.00;99982.84;5098031;28;20279;-86
2022/08/07 12:16:49;;;;;;;;;;;;;;;22.49;100.00;99989.47;5063556;28;19924;-86
2022/08/07 12:19:35;;;;;;;;;;;;;;;22.48;100.00;99987.91;5096398;28;19924;-87
2022/08/07 12:22:15;;;;;;;;;;;;;;;22.91;100.00;99987.38;5096929;28;20383;-87
2022/08/07 12:27:47;;;;;;;;;;;;;;;22.45;100.00;99980.31;5096806;28;19924;-86
2022/08/07 12:30:15;;;;;;;;;;;;;;;23.03;100.00;99985.53;5097561;28;20322;-85
2022/08/07 12:33:11;;;;;;;;;;;;;;;22.50;100.00;99996.78;5096630;28;20346;-85
2022/08/07 12:35:39;;;;;;;;;;;;;;;22.53;100.00;99990.13;5080304;28;19924;-86
2022/08/07 12:38:06;;;;;;;;;;;;;;;22.70;100.00;100008.38;5098074;28;20263;-85
2022/08/07 12:40:35;;;;;;;;;;;;;;;23.00;100.00;99990.16;5097710;28;19928;-85
2022/08/07 12:43:12;;;;;;;;;;;;;;;22.91;100.00;100015.06;5096486;28;20363;-86
2022/08/07 12:45:42;;;;;;;;;;;;;;;22.85;100.00;100006.41;5079679;28;19997;-87
2022/08/07 12:48:09;;;;;;;;;;;;;;;23.15;100.00;100018.69;5078788;28;19924;-86
2022/08/07 12:50:39;;;;;;;;;;;;;;;22.69;100.00;100015.34;5059456;28;19930;-86
2022/08/07 12:53:27;;;;;;;;;;;;;;;22.14;100.00;100016.06;5059095;28;19974;-85
2022/08/07 12:55:57;;;;;;;;;;;;;;;22.41;100.00;100005.34;5075604;28;19937;-86
2022/08/07 12:58:27;;;;;;;;;;;;;;;22.37;100.00;100004.72;5041710;28;19936;-87
2022/08/07 13:00:58;;;;;;;;;;;;;;;22.50;100.00;100005.34;5077004;28;19928;-86
2022/08/07 13:03:44;;;;;;;;;;;;;;;22.38;100.00;100003.47;5075404;28;20275;-88
2022/08/07 13:06:11;;;;;;;;;;;;;;;22.50;100.00;99996.78;5092482;28;19946;-87
2022/08/07 13:08:41;;;;;;;;;;;;;;;23.13;100.00;99996.38;5058896;28;19978;-87
2022/08/07 13:11:24;;;;;;;;;;;;;;;23.10;100.00;99994.50;5075627;28;20291;-87
2022/08/07 13:14:10;;;;;;;;;;;;;;;22.87;100.00;99992.44;5075437;28;20367;-86